createdAt,value
2019-01-24T00:00:31.827Z,74.80
2019-01-24T00:03:00.926Z,78.28
2019-01-24T00:05:30.023Z,78.80
2019-01-24T00:07:59.160Z,72.72
2019-01-24T00:10:28.216Z,75.05
2019-01-24T00:12:57.273Z,74.25
2019-01-24T00:15:26.385Z,74.10
2019-01-24T00:17:55.448Z,75.90
2019-01-24T00:20:24.619Z,75.73
2019-01-24T00:22:53.696Z,75.55
2019-01-24T00:25:22.802Z,81.50
2019-01-24T00:27:51.994Z,72.60
2019-01-24T00:30:21.065Z,76.50
2019-01-24T00:32:50.139Z,76.62
2019-01-24T00:35:19.301Z,76.57
2019-01-24T00:37:48.370Z,76.07
2019-01-24T00:40:18.630Z,79.03
2019-01-24T00:42:47.804Z,77.62
2019-01-24T00:45:16.870Z,75.43
2019-01-24T00:47:45.975Z,73.57
2019-01-24T00:50:15.263Z,77.37
2019-01-24T00:52:44.329Z,74.85
2019-01-24T00:55:14.018Z,74.90
2019-01-24T00:57:43.109Z,78.02
2019-01-24T01:00:20.816Z,73.07
2019-01-24T01:02:49.890Z,77.10
2019-01-24T01:05:18.965Z,75.53
2019-01-24T01:07:48.069Z,77.90
2019-01-24T01:10:17.172Z,75.60
2019-01-24T01:12:46.205Z,73.87
2019-01-24T01:15:16.736Z,72.20
2019-01-24T01:17:45.858Z,75.60
2019-01-24T01:20:17.372Z,79.93
2019-01-24T01:22:46.552Z,80.62
2019-01-24T01:25:15.635Z,80.13
2019-01-24T01:27:44.780Z,78.33
2019-01-24T01:30:16.416Z,78.17
2019-01-24T01:32:45.464Z,79.07
2019-01-24T01:35:14.592Z,78.70
2019-01-24T01:37:43.675Z,72.05
2019-01-24T01:40:13.306Z,73.27
2019-01-24T01:42:44.918Z,76.90
2019-01-24T01:45:19.375Z,74.17
2019-01-24T01:47:48.448Z,76.60
2019-01-24T01:50:19.593Z,81.40
2019-01-24T01:52:48.833Z,78.62
2019-01-24T01:55:17.895Z,81.07
2019-01-24T01:57:46.956Z,74.37
2019-01-24T02:00:21.330Z,78.83
2019-01-24T02:02:50.447Z,80.50
2019-01-24T02:05:19.521Z,79.80
2019-01-24T02:07:48.642Z,77.62
2019-01-24T02:10:19.557Z,78.83
2019-01-24T02:12:48.655Z,83.10
2019-01-24T02:15:17.717Z,79.83
2019-01-24T02:17:46.791Z,81.22
2019-01-24T02:20:18.186Z,80.47
2019-01-24T02:22:47.264Z,84.70
2019-01-24T02:25:16.296Z,88.47
2019-01-24T02:27:45.340Z,84.87
2019-01-24T02:30:17.697Z,84.40
2019-01-24T02:32:46.786Z,83.00
2019-01-24T02:35:15.889Z,82.47
2019-01-24T02:37:44.995Z,86.37
2019-01-24T02:40:14.076Z,78.07
2019-01-24T02:42:43.196Z,82.82
2019-01-24T02:45:14.109Z,83.87
2019-01-24T02:47:43.239Z,81.80
2019-01-24T02:50:14.529Z,82.60
2019-01-24T02:52:43.594Z,91.22
2019-01-24T02:55:14.367Z,78.77
2019-01-24T02:57:43.447Z,84.03
2019-01-24T03:00:15.031Z,89.40
2019-01-24T03:02:44.209Z,89.50
2019-01-24T03:05:14.717Z,87.02
2019-01-24T03:07:43.807Z,84.58
2019-01-24T03:10:13.367Z,84.97
2019-01-24T03:12:42.438Z,80.75
2019-01-24T03:15:13.287Z,81.97
2019-01-24T03:17:42.348Z,80.07
2019-01-24T03:20:11.914Z,85.62
2019-01-24T03:22:40.991Z,82.02
2019-01-24T03:25:10.148Z,85.92
2019-01-24T03:27:39.220Z,90.47
2019-01-24T03:30:11.262Z,89.30
2019-01-24T03:32:40.326Z,89.35
2019-01-24T03:35:11.762Z,90.90
2019-01-24T03:37:40.930Z,82.85
2019-01-24T03:40:11.325Z,87.62
2019-01-24T03:42:40.428Z,90.10
2019-01-24T03:45:11.431Z,87.20
2019-01-24T03:47:40.540Z,83.82
2019-01-24T03:50:11.747Z,92.78
2019-01-24T03:52:40.826Z,85.50
2019-01-24T03:55:10.758Z,89.22
2019-01-24T03:57:39.821Z,86.70
2019-01-24T04:00:12.471Z,86.15
2019-01-24T04:02:41.523Z,91.00
2019-01-24T04:05:12.050Z,86.35
2019-01-24T04:07:41.328Z,88.47
2019-01-24T04:10:15.694Z,88.12
2019-01-24T04:12:44.831Z,81.57
2019-01-24T04:15:16.190Z,84.07
2019-01-24T04:17:45.295Z,82.57
2019-01-24T04:20:14.391Z,85.93
2019-01-24T04:22:43.489Z,83.92
2019-01-24T04:25:12.553Z,89.16
2019-01-24T04:27:41.599Z,83.35
2019-01-24T04:30:14.101Z,83.62
2019-01-24T04:32:43.151Z,84.42
2019-01-24T04:35:19.447Z,87.20
2019-01-24T04:37:43.042Z,85.38
2019-01-24T04:40:14.297Z,84.65
2019-01-24T04:42:43.323Z,89.05
2019-01-24T04:45:13.573Z,86.00
2019-01-24T04:47:42.615Z,89.28
2019-01-24T04:50:13.558Z,90.28
2019-01-24T04:52:42.608Z,85.80
2019-01-24T04:55:13.007Z,90.45
2019-01-24T04:57:42.026Z,87.50
2019-01-24T05:00:17.119Z,87.47
2019-01-24T05:02:46.276Z,88.22
2019-01-24T05:05:15.346Z,92.47
2019-01-24T05:07:44.538Z,95.53
2019-01-24T05:10:13.712Z,90.63
2019-01-24T05:12:42.804Z,95.67
2019-01-24T05:15:11.907Z,96.22
2019-01-24T05:17:40.947Z,97.88
2019-01-24T05:20:10.746Z,88.62
2019-01-24T05:22:39.916Z,89.03
2019-01-24T05:25:10.887Z,90.90
2019-01-24T05:27:40.062Z,93.25
2019-01-24T05:30:12.961Z,95.92
2019-01-24T05:32:42.051Z,98.37
2019-01-24T05:35:11.122Z,92.60
2019-01-24T05:37:40.216Z,97.15
2019-01-24T05:40:09.306Z,93.45
2019-01-24T05:42:38.397Z,92.60
2019-01-24T05:45:07.823Z,89.75
2019-01-24T05:47:36.972Z,94.20
2019-01-24T05:50:06.925Z,93.15
2019-01-24T05:52:36.079Z,94.77
2019-01-24T05:55:05.855Z,96.32
2019-01-24T05:57:34.928Z,95.30
2019-01-24T06:00:04.574Z,97.60
2019-01-24T06:02:33.661Z,103.07
2019-01-24T06:05:02.789Z,99.95
2019-01-24T06:07:31.924Z,101.97
2019-01-24T06:10:01.023Z,94.20
2019-01-24T06:12:31.385Z,96.75
2019-01-24T06:15:00.510Z,97.40
2019-01-24T06:17:29.681Z,92.70
2019-01-24T06:19:58.806Z,99.03
2019-01-24T06:22:27.971Z,96.83
2019-01-24T06:24:57.064Z,98.70
2019-01-24T06:27:26.205Z,95.47
2019-01-24T06:29:55.441Z,95.30
2019-01-24T06:32:24.634Z,93.87
2019-01-24T06:34:53.795Z,100.85
2019-01-24T06:37:22.887Z,92.55
2019-01-24T06:39:52.009Z,93.25
2019-01-24T06:42:21.080Z,93.82
2019-01-24T06:44:50.179Z,89.80
2019-01-24T06:47:23.996Z,94.07
2019-01-24T06:49:59.573Z,88.00
2019-01-24T06:52:28.781Z,95.80
2019-01-24T06:54:57.965Z,93.27
2019-01-24T06:57:27.176Z,93.75
2019-01-24T06:59:58.462Z,92.88
2019-01-24T07:02:38.208Z,93.95
2019-01-24T07:05:18.051Z,91.08
2019-01-24T07:07:47.158Z,87.42
2019-01-24T07:10:17.930Z,92.87
2019-01-24T07:12:47.014Z,93.55
2019-01-24T07:15:20.842Z,92.90
2019-01-24T07:17:49.962Z,95.20
2019-01-24T07:20:19.116Z,98.80
2019-01-24T07:22:48.203Z,91.22
2019-01-24T07:25:27.373Z,98.37
2019-01-24T07:27:56.468Z,96.90
2019-01-24T07:30:25.676Z,91.97
2019-01-24T07:32:54.890Z,90.45
2019-01-24T07:35:24.003Z,86.10
2019-01-24T07:37:53.332Z,90.70
2019-01-24T07:40:22.399Z,92.97
2019-01-24T07:42:51.513Z,90.62
2019-01-24T07:45:26.350Z,91.17
2019-01-24T07:47:55.398Z,90.90
2019-01-24T07:50:24.571Z,86.30
2019-01-24T07:52:53.637Z,85.00
2019-01-24T07:55:22.806Z,92.63
2019-01-24T07:57:52.026Z,93.30
2019-01-24T08:00:25.338Z,92.72
2019-01-24T08:02:54.502Z,90.28
2019-01-24T08:05:23.953Z,92.13
2019-01-24T08:07:53.112Z,95.30
2019-01-24T08:10:22.335Z,88.22
2019-01-24T08:12:51.481Z,92.35
2019-01-24T08:15:21.162Z,92.27
2019-01-24T08:17:50.283Z,92.97
2019-01-24T08:20:24.308Z,90.53
2019-01-24T08:22:53.458Z,97.07
2019-01-24T08:25:22.518Z,99.10
2019-01-24T08:27:51.646Z,94.25
2019-01-24T08:30:25.745Z,93.87
2019-01-24T08:32:54.941Z,99.47
2019-01-24T08:35:24.024Z,96.83
2019-01-24T08:37:53.130Z,101.18
2019-01-24T08:40:22.256Z,95.77
2019-01-24T08:42:51.349Z,91.00
2019-01-24T08:45:20.387Z,97.77
2019-01-24T08:47:49.552Z,94.05
2019-01-24T08:50:20.139Z,98.67
2019-01-24T08:52:49.176Z,101.18
2019-01-24T08:55:20.942Z,98.53
2019-01-24T08:57:50.048Z,100.05
2019-01-24T09:00:19.777Z,101.57
2019-01-24T09:02:48.977Z,97.37
2019-01-24T09:05:18.134Z,98.30
2019-01-24T09:07:47.277Z,92.92
2019-01-24T09:10:37.198Z,97.73
2019-01-24T09:13:07.308Z,99.58
2019-01-24T09:15:36.662Z,100.62
2019-01-24T09:18:06.318Z,99.60
2019-01-24T09:20:35.479Z,97.37
2019-01-24T09:23:05.134Z,99.25
2019-01-24T09:25:34.294Z,95.97
2019-01-24T09:28:03.439Z,95.45
2019-01-24T09:30:32.557Z,104.80
2019-01-24T09:33:01.677Z,105.67
2019-01-24T09:35:31.068Z,102.22
2019-01-24T09:38:00.195Z,101.85
2019-01-24T09:40:29.409Z,101.72
2019-01-24T09:42:58.591Z,96.47
2019-01-24T09:45:29.189Z,95.38
2019-01-24T09:48:00.200Z,90.75
2019-01-24T09:50:29.418Z,98.90
2019-01-24T09:53:02.928Z,92.27
2019-01-24T09:55:31.999Z,96.82
2019-01-24T09:58:01.149Z,96.78
2019-01-24T10:00:35.314Z,95.28
2019-01-24T10:03:04.980Z,101.02
2019-01-24T10:05:34.099Z,92.95
2019-01-24T10:08:03.155Z,96.08
2019-01-24T10:10:32.500Z,92.55
2019-01-24T10:13:01.588Z,101.47
2019-01-24T10:15:30.728Z,97.05
2019-01-24T10:17:59.866Z,94.13
2019-01-24T10:20:29.241Z,91.30
2019-01-24T10:22:58.384Z,96.90
2019-01-24T10:25:35.942Z,89.72
2019-01-24T10:28:05.161Z,98.92
2019-01-24T10:30:34.226Z,93.47
2019-01-24T10:33:03.348Z,90.80
2019-01-24T10:35:32.421Z,95.80
2019-01-24T10:38:01.556Z,92.27
2019-01-24T10:40:31.703Z,95.75
2019-01-24T10:43:00.821Z,92.75
2019-01-24T10:45:29.923Z,98.17
2019-01-24T10:47:59.135Z,94.60
2019-01-24T10:50:28.415Z,94.58
2019-01-24T10:52:57.605Z,95.30
2019-01-24T10:55:28.037Z,92.75
2019-01-24T10:58:02.052Z,93.60
2019-01-24T11:00:39.145Z,95.47
2019-01-24T11:03:10.487Z,98.20
2019-01-24T11:05:39.591Z,94.93
2019-01-24T11:08:08.752Z,91.97
2019-01-24T11:10:37.867Z,94.35
2019-01-24T11:13:06.986Z,98.15
2019-01-24T11:15:36.148Z,93.92
2019-01-24T11:18:07.559Z,93.35
2019-01-24T11:20:36.737Z,101.77
2019-01-24T11:23:06.106Z,105.40
2019-01-24T11:25:35.315Z,101.60
2019-01-24T11:28:04.455Z,103.62
2019-01-24T11:30:33.635Z,102.35
2019-01-24T11:33:02.661Z,110.12
2019-01-24T11:35:35.815Z,105.95
2019-01-24T11:38:05.232Z,106.03
2019-01-24T11:40:34.610Z,102.50
2019-01-24T11:43:03.720Z,106.35
2019-01-24T11:45:35.779Z,100.55
2019-01-24T11:48:04.982Z,104.63
2019-01-24T11:50:37.485Z,106.47
2019-01-24T11:53:06.671Z,105.25
2019-01-24T11:55:35.896Z,107.92
2019-01-24T11:58:05.652Z,104.50
2019-01-24T12:00:57.371Z,113.65
2019-01-24T12:03:26.503Z,111.45
2019-01-24T12:05:55.633Z,112.42
2019-01-24T12:08:24.846Z,110.65
2019-01-24T12:10:53.979Z,104.92
2019-01-24T12:13:23.144Z,107.03
2019-01-24T12:15:52.261Z,108.05
2019-01-24T12:18:21.342Z,112.72
2019-01-24T12:20:50.521Z,112.10
2019-01-24T12:23:19.640Z,113.50
2019-01-24T12:25:50.122Z,111.40
2019-01-24T12:28:19.286Z,116.28
2019-01-24T12:30:48.394Z,113.92
2019-01-24T12:33:17.485Z,118.90
2019-01-24T12:35:49.440Z,113.70
2019-01-24T12:38:18.632Z,110.17
2019-01-24T12:40:47.688Z,115.28
2019-01-24T12:43:16.787Z,112.57
2019-01-24T12:45:45.873Z,119.35
2019-01-24T12:48:15.002Z,115.80
2019-01-24T12:50:44.070Z,116.17
2019-01-24T12:53:13.179Z,115.75
2019-01-24T12:55:42.246Z,115.90
2019-01-24T12:58:11.369Z,117.05
2019-01-24T13:00:40.781Z,113.25
2019-01-24T13:03:09.950Z,118.87
2019-01-24T13:05:39.070Z,118.87
2019-01-24T13:08:08.411Z,119.82
2019-01-24T13:10:37.550Z,117.37
2019-01-24T13:13:06.950Z,120.80
2019-01-24T13:15:36.060Z,143.15
2019-01-24T13:18:05.353Z,120.87
2019-01-24T13:20:34.395Z,121.62
2019-01-24T13:23:03.503Z,118.60
2019-01-24T13:25:34.611Z,118.30
2019-01-24T13:28:03.875Z,121.55
2019-01-24T13:30:34.991Z,114.20
2019-01-24T13:33:05.090Z,114.50
2019-01-24T13:35:35.407Z,116.05
2019-01-24T13:38:04.690Z,114.52
2019-01-24T13:40:33.786Z,116.45
2019-01-24T13:43:05.350Z,116.90
2019-01-24T13:45:39.479Z,114.67
2019-01-24T13:48:08.596Z,116.25
2019-01-24T13:50:40.764Z,118.82
2019-01-24T13:53:10.317Z,113.47
2019-01-24T13:55:39.646Z,113.50
2019-01-24T13:58:09.085Z,121.02
2019-01-24T14:00:40.171Z,120.25
2019-01-24T14:03:31.217Z,107.07
2019-01-24T14:06:00.419Z,113.52
2019-01-24T14:08:29.508Z,114.70
2019-01-24T14:10:58.659Z,116.55
2019-01-24T14:13:27.815Z,116.77
2019-01-24T14:15:59.561Z,115.67
2019-01-24T14:18:28.631Z,116.25
2019-01-24T14:20:57.730Z,114.22
2019-01-24T14:23:26.860Z,111.20
2019-01-24T14:25:55.918Z,109.20
2019-01-24T14:28:25.039Z,108.78
2019-01-24T14:30:54.219Z,107.00
2019-01-24T14:47:32.136Z,107.47
2019-01-24T14:50:01.270Z,113.95
2019-01-24T14:52:30.426Z,104.23
2019-01-24T14:54:59.531Z,108.78
2019-01-24T14:57:28.758Z,104.32
2019-01-24T14:59:57.911Z,104.55
2019-01-24T15:02:27.146Z,103.92
2019-01-24T15:04:56.277Z,104.85
2019-01-24T15:07:27.726Z,105.75
2019-01-24T15:09:56.823Z,103.65
2019-01-24T15:12:26.059Z,104.50
2019-01-24T15:14:55.307Z,105.40
2019-01-24T15:17:24.405Z,109.32
2019-01-24T15:19:53.569Z,102.97
2019-01-24T15:22:22.710Z,108.35
2019-01-24T15:24:51.857Z,107.47
2019-01-24T15:27:20.971Z,112.12
2019-01-24T15:29:50.065Z,110.45
2019-01-24T15:32:19.199Z,107.40
2019-01-24T15:34:48.308Z,108.90
2019-01-24T15:37:17.398Z,104.00
2019-01-24T15:39:46.588Z,109.90
2019-01-24T15:42:15.725Z,104.55
2019-01-24T15:44:44.818Z,111.62
2019-01-24T15:47:13.920Z,107.03
2019-01-24T15:49:45.347Z,106.35
2019-01-24T15:52:14.031Z,111.25
2019-01-24T15:54:58.207Z,110.97
2019-01-24T15:57:32.031Z,109.20
2019-01-24T16:00:00.748Z,108.97
2019-01-24T16:02:29.827Z,108.67
2019-01-24T16:05:00.258Z,107.10
2019-01-24T16:07:29.475Z,106.00
2019-01-24T16:09:58.761Z,110.55
2019-01-24T16:12:27.821Z,109.35
2019-01-24T16:14:56.920Z,111.15
2019-01-24T16:17:26.002Z,114.82
2019-01-24T16:19:55.224Z,109.57
2019-01-24T16:22:24.323Z,120.65
2019-01-24T16:24:53.579Z,108.00
2019-01-24T16:27:22.725Z,110.30
2019-01-24T16:29:51.883Z,107.80
2019-01-24T16:32:21.164Z,110.97
2019-01-24T16:34:51.634Z,109.15
2019-01-24T16:37:24.709Z,105.22
2019-01-24T16:39:53.881Z,104.63
2019-01-24T16:42:25.421Z,110.35
2019-01-24T16:44:54.508Z,107.22
2019-01-24T16:47:23.798Z,117.85
2019-01-24T16:49:52.988Z,110.00
2019-01-24T16:52:22.213Z,113.37
2019-01-24T16:54:51.401Z,107.65
2019-01-24T16:57:20.646Z,109.15
2019-01-24T16:59:49.819Z,108.15
2019-01-24T17:02:19.207Z,108.03
2019-01-24T17:04:48.406Z,114.32
2019-01-24T17:07:17.511Z,105.87
2019-01-24T17:09:46.674Z,108.35
2019-01-24T17:12:15.820Z,115.97
2019-01-24T17:14:44.919Z,109.83
2019-01-24T17:17:14.087Z,108.22
2019-01-24T17:19:43.210Z,109.48
2019-01-24T17:22:12.344Z,105.15
2019-01-24T17:24:41.538Z,108.78
2019-01-24T17:27:10.673Z,113.42
2019-01-24T17:29:39.842Z,106.87
2019-01-24T17:32:09.166Z,109.05
2019-01-24T17:34:38.265Z,107.80
2019-01-24T17:37:07.477Z,108.60
2019-01-24T17:39:36.565Z,112.37
2019-01-24T17:42:05.759Z,112.77
2019-01-24T17:44:35.076Z,111.55
2019-01-24T17:47:31.274Z,109.72
2019-01-24T17:50:00.393Z,107.72
2019-01-24T17:52:32.356Z,108.15
2019-01-24T17:55:01.449Z,106.77
2019-01-24T17:57:30.561Z,109.52
2019-01-24T17:59:59.738Z,110.25
2019-01-24T18:02:35.049Z,112.15
2019-01-24T18:05:04.413Z,112.92
2019-01-24T18:07:33.577Z,110.42
2019-01-24T18:10:33.188Z,112.15
2019-01-24T18:13:02.380Z,111.70
2019-01-24T18:15:35.127Z,109.52
2019-01-24T18:18:06.143Z,123.70
2019-01-24T18:20:35.277Z,112.75
2019-01-24T18:23:07.037Z,108.55
2019-01-24T18:25:36.304Z,118.53
2019-01-24T18:28:32.448Z,110.75
2019-01-24T18:34:33.876Z,107.45
2019-01-24T18:37:33.573Z,110.35
2019-01-24T18:40:33.114Z,114.88
2019-01-24T18:43:32.137Z,109.12
2019-01-24T18:46:31.911Z,106.87
2019-01-24T18:49:31.340Z,106.27
2019-01-24T18:52:33.606Z,116.80
2019-01-24T18:55:32.983Z,106.58
2019-01-24T18:58:32.354Z,112.42
2019-01-24T19:01:31.821Z,100.27
2019-01-24T19:07:52.833Z,110.25
2019-01-24T19:10:22.418Z,108.43
2019-01-24T19:12:51.768Z,110.63
2019-01-24T19:15:20.999Z,111.20
2019-01-24T19:17:50.287Z,107.03
2019-01-24T19:20:20.370Z,105.00
2019-01-24T19:22:50.010Z,111.15
2019-01-24T19:25:19.821Z,112.97
2019-01-24T19:27:48.983Z,112.75
2019-01-24T19:30:21.243Z,106.43
2019-01-24T19:32:50.465Z,118.28
2019-01-24T19:35:19.697Z,118.90
2019-01-24T19:37:48.962Z,111.52
2019-01-24T19:40:19.537Z,111.50
2019-01-24T19:42:48.744Z,118.00
2019-01-24T19:45:19.640Z,115.13
2019-01-24T19:47:49.241Z,110.68
2019-01-24T19:50:20.299Z,113.67
2019-01-24T19:52:49.485Z,111.95
2019-01-24T19:55:18.691Z,117.90
2019-01-24T19:57:47.959Z,111.62
2019-01-24T20:00:21.891Z,114.77
2019-01-24T20:02:51.076Z,114.95
2019-01-24T20:05:20.265Z,112.50
2019-01-24T20:07:49.380Z,115.55
2019-01-24T20:10:20.275Z,109.57
2019-01-24T20:12:49.474Z,111.00
2019-01-24T20:15:23.830Z,114.00
2019-01-24T20:17:53.901Z,120.53
2019-01-24T20:20:23.117Z,116.57
2019-01-24T20:22:52.644Z,113.45
2019-01-24T20:25:24.633Z,117.03
2019-01-24T20:27:53.916Z,120.33
2019-01-24T20:30:24.904Z,124.53
2019-01-24T20:32:54.104Z,118.37
2019-01-24T20:35:37.966Z,110.90
2019-01-24T20:38:07.553Z,117.93
2019-01-24T20:40:36.818Z,114.72
2019-01-24T20:43:05.982Z,108.60
2019-01-24T20:45:35.114Z,111.37
2019-01-24T20:48:04.343Z,116.85
2019-01-24T20:50:33.529Z,114.40
2019-01-24T20:53:02.716Z,111.55
2019-01-24T20:55:31.854Z,116.35
2019-01-24T20:58:00.992Z,110.35
2019-01-24T21:00:30.162Z,111.70
2019-01-24T21:02:59.378Z,110.83
2019-01-24T21:05:28.651Z,116.60
2019-01-24T21:07:57.862Z,120.22
2019-01-24T21:10:27.072Z,110.42
2019-01-24T21:12:56.228Z,114.85
2019-01-24T21:15:25.344Z,113.40
2019-01-24T21:17:54.460Z,114.97
2019-01-24T21:20:25.314Z,117.10
2019-01-24T21:22:54.475Z,118.13
2019-01-24T21:25:23.716Z,113.83
2019-01-24T21:27:52.882Z,113.60
2019-01-24T21:30:24.485Z,106.95
2019-01-24T21:32:53.591Z,123.53
2019-01-24T21:35:22.663Z,114.67
2019-01-24T21:37:51.751Z,112.05
2019-01-24T21:40:21.192Z,113.40
2019-01-24T21:42:50.375Z,122.45
2019-01-24T21:45:22.040Z,118.17
2019-01-24T21:47:51.091Z,115.72
2019-01-24T21:50:21.218Z,122.73
2019-01-24T21:52:50.355Z,113.40
2019-01-24T21:55:20.351Z,115.62
2019-01-24T21:57:49.460Z,121.72
2019-01-24T22:00:20.567Z,121.43
2019-01-24T22:02:49.746Z,124.22
2019-01-24T22:05:19.271Z,117.27
2019-01-24T22:07:48.457Z,127.05
2019-01-24T22:10:20.458Z,121.03
2019-01-24T22:12:49.593Z,126.18
2019-01-24T22:15:19.891Z,123.50
2019-01-24T22:17:48.952Z,125.25
2019-01-24T22:20:18.148Z,126.23
2019-01-24T22:22:47.275Z,121.25
2019-01-24T22:25:18.353Z,123.25
2019-01-24T22:27:47.563Z,121.92
2019-01-24T22:30:30.609Z,120.70
2019-01-24T22:35:27.849Z,123.82
2019-01-24T22:37:56.972Z,128.15
2019-01-24T22:40:26.110Z,123.37
2019-01-24T22:42:55.163Z,110.48
2019-01-24T22:45:24.806Z,118.20
2019-01-24T22:47:53.894Z,115.60
2019-01-24T22:50:22.930Z,121.57
2019-01-24T22:52:52.028Z,114.12
2019-01-24T22:55:21.196Z,111.20
2019-01-24T22:57:50.273Z,118.25
2019-01-24T23:00:46.456Z,110.23
2019-01-24T23:03:17.476Z,107.20
2019-01-24T23:05:46.550Z,106.13
2019-01-24T23:08:15.640Z,109.65
2019-01-24T23:10:44.765Z,111.62
2019-01-24T23:13:13.828Z,107.50
2019-01-24T23:15:42.877Z,105.52
2019-01-24T23:18:11.944Z,107.65
2019-01-24T23:20:40.983Z,104.32
2019-01-24T23:23:10.062Z,109.60
2019-01-24T23:25:39.061Z,107.47
2019-01-24T23:28:08.171Z,105.35
2019-01-24T23:30:37.212Z,103.90
2019-01-24T23:33:06.263Z,104.92
2019-01-24T23:35:35.320Z,97.57
2019-01-24T23:38:04.356Z,99.52
2019-01-24T23:40:33.406Z,107.83
2019-01-24T23:43:02.430Z,108.30
2019-01-24T23:45:31.453Z,103.67
2019-01-24T23:48:00.513Z,104.78
2019-01-24T23:50:29.561Z,104.30
2019-01-24T23:52:58.589Z,102.07
2019-01-24T23:55:27.630Z,107.37
2019-01-24T23:57:56.672Z,106.17
